Time;durP1;ratioP1;P1;durP2;ratioP2;P2;SDS_P1;SDS_P2;PMS_P1;PMS_P2;Temp;Humidity;BMP_temperature;BMP_pressure;BME280_temperature;BME280_humidity;BME280_pressure;Samples;Min_cycle;Max_cycle;Signal;HPM_P1;HPM_P2
2023/09/03 00:00:07;;;;;;;3.05;2.75;;;;;;;20.87;54.30;94068.19;515653;28;1102;-51
2023/09/03 00:00:22;;;;;;;3.00;2.60;;;;;;;20.85;54.32;94065.25;511801;28;1716;-50
2023/09/03 00:00:41;;;;;;;2.67;2.47;;;;;;;20.86;54.43;94063.88;508289;29;2125;-51
2023/09/03 00:00:57;;;;;;;4.28;2.47;;;;;;;20.83;54.32;94065.84;509689;29;1347;-52
2023/09/03 00:01:12;;;;;;;4.72;2.60;;;;;;;20.83;54.33;94065.84;510122;29;865;-51
2023/09/03 00:01:28;;;;;;;3.47;2.60;;;;;;;20.82;54.33;94064.38;510796;29;1197;-50
2023/09/03 00:01:44;;;;;;;3.43;2.53;;;;;;;20.83;54.45;94070.72;511908;29;881;-50
2023/09/03 00:02:02;;;;;;;2.97;2.63;;;;;;;20.76;54.40;94061.16;511749;28;923;-50
2023/09/03 00:02:18;;;;;;;3.08;2.72;;;;;;;20.82;54.41;94060.81;513624;28;1974;-50
2023/09/03 00:02:33;;;;;;;2.80;2.50;;;;;;;20.81;54.52;94062.88;511944;29;955;-50
2023/09/03 00:02:48;;;;;;;3.13;2.60;;;;;;;20.81;54.51;94059.38;513183;28;1049;-52
2023/09/03 00:03:04;;;;;;;3.23;2.63;;;;;;;20.73;54.59;94053.19;513842;28;1425;-49
2023/09/03 00:03:20;;;;;;;3.42;2.78;;;;;;;20.81;54.58;94062.16;514051;28;921;-52
2023/09/03 00:03:35;;;;;;;3.30;2.65;;;;;;;20.81;54.52;94062.16;514015;28;802;-49
2023/09/03 00:03:51;;;;;;;3.27;2.50;;;;;;;20.80;54.56;94067.03;512446;28;1877;-50
2023/09/03 00:04:06;;;;;;;3.38;2.63;;;;;;;20.79;54.61;94065.56;512299;28;1151;-52
2023/09/03 00:04:22;;;;;;;3.10;2.77;;;;;;;20.79;54.60;94059.22;513566;28;1258;-51
2023/09/03 00:04:37;;;;;;;2.77;2.57;;;;;;;20.79;54.62;94065.56;513776;28;1571;-52
2023/09/03 00:04:52;;;;;;;2.50;2.30;;;;;;;20.78;54.82;94064.09;512309;28;889;-51
2023/09/03 00:05:08;;;;;;;2.73;2.40;;;;;;;20.78;54.89;94057.75;512008;28;1623;-52
2023/09/03 00:05:23;;;;;;;2.80;2.43;;;;;;;20.77;54.96;94065.44;513531;28;912;-50
2023/09/03 00:05:49;;;;;;;2.78;2.45;;;;;;;20.65;54.76;94050.59;514046;28;1593;-50
2023/09/03 00:06:05;;;;;;;2.60;2.40;;;;;;;20.74;54.73;94063.84;513929;28;876;-50
2023/09/03 00:06:20;;;;;;;2.50;2.30;;;;;;;20.73;54.69;94062.38;513156;28;1637;-49
2023/09/03 00:06:36;;;;;;;2.50;2.30;;;;;;;20.73;54.67;94061.63;513817;28;948;-50
2023/09/03 00:06:51;;;;;;;2.93;2.63;;;;;;;20.71;54.73;94059.41;513933;28;815;-51
2023/09/03 00:07:07;;;;;;;2.70;2.50;;;;;;;20.69;54.80;94064.91;513058;28;1382;-50
2023/09/03 00:07:22;;;;;;;2.50;2.30;;;;;;;20.69;54.84;94055.75;513005;28;1151;-52
2023/09/03 00:07:40;;;;;;;3.00;2.67;;;;;;;20.67;54.70;94058.41;513944;28;857;-50
2023/09/03 00:08:03;;;;;;;3.30;2.63;;;;;;;20.66;54.77;94063.28;513738;28;943;-50
2023/09/03 00:08:18;;;;;;;3.35;2.42;;;;;;;20.65;54.80;94059.03;513862;28;1369;-50
2023/09/03 00:08:34;;;;;;;3.60;2.43;;;;;;;20.64;54.89;94063.16;514084;28;825;-50
2023/09/03 00:08:52;;;;;;;3.33;2.60;;;;;;;20.63;55.19;94058.91;514025;28;1400;-50
2023/09/03 00:09:10;;;;;;;3.03;2.72;;;;;;;20.63;55.06;94063.75;514144;28;1157;-49
2023/09/03 00:09:25;;;;;;;2.55;2.35;;;;;;;20.63;55.07;94063.75;513677;28;1235;-50
2023/09/03 00:09:41;;;;;;;2.70;2.50;;;;;;;20.63;55.24;94060.97;513867;28;1566;-50
2023/09/03 00:09:56;;;;;;;3.00;2.60;;;;;;;20.62;55.40;94063.03;513777;28;1495;-50
2023/09/03 00:10:12;;;;;;;2.53;2.30;;;;;;;20.63;55.54;94066.56;514044;28;847;-51
2023/09/03 00:10:28;;;;;;;2.40;2.10;;;;;;;20.61;55.44;94064.38;513918;28;866;-51
2023/09/03 00:10:43;;;;;;;2.70;2.30;;;;;;;20.60;55.36;94062.88;513221;28;1533;-50
2023/09/03 00:10:58;;;;;;;2.60;2.40;;;;;;;20.60;55.36;94067.75;513795;28;1231;-52
2023/09/03 00:11:15;;;;;;;2.53;2.33;;;;;;;20.59;55.37;94066.31;512641;28;1349;-52
2023/09/03 00:11:31;;;;;;;2.70;2.50;;;;;;;20.57;55.25;94066.16;511923;28;961;-50
2023/09/03 00:11:46;;;;;;;2.83;2.63;;;;;;;20.57;55.26;94069.72;512718;28;829;-52
2023/09/03 00:12:03;;;;;;;2.92;2.63;;;;;;;20.56;55.23;94065.44;513770;28;871;-51
2023/09/03 00:12:18;;;;;;;2.75;2.47;;;;;;;20.55;55.41;94066.03;513534;28;1402;-51
2023/09/03 00:12:33;;;;;;;2.83;2.40;;;;;;;20.55;55.50;94068.84;513653;28;1508;-49
2023/09/03 00:12:49;;;;;;;2.53;2.30;;;;;;;20.54;55.50;94067.34;513860;28;1163;-50
2023/09/03 00:13:05;;;;;;;2.40;2.20;;;;;;;20.53;55.52;94066.63;513958;28;983;-51
2023/09/03 00:13:21;;;;;;;2.33;2.13;;;;;;;20.53;55.49;94072.22;513350;28;1590;-52
2023/09/03 00:13:36;;;;;;;2.50;2.30;;;;;;;20.52;55.61;94073.56;513366;28;1334;-49
2023/09/03 00:13:52;;;;;;;2.53;2.33;;;;;;;20.52;55.51;94065.16;513898;28;1480;-50
2023/09/03 00:14:07;;;;;;;2.63;2.42;;;;;;;20.50;55.56;94073.44;513871;28;962;-51
2023/09/03 00:14:22;;;;;;;2.60;2.40;;;;;;;20.50;55.66;94078.31;513724;28;1111;-51
2023/09/03 00:14:38;;;;;;;2.72;2.42;;;;;;;20.48;55.62;94067.69;514042;28;840;-50
2023/09/03 00:14:54;;;;;;;2.97;2.50;;;;;;;20.46;55.67;94064.03;514051;28;806;-51
2023/09/03 00:15:10;;;;;;;2.45;2.25;;;;;;;20.47;55.75;94068.28;514010;28;905;-50
2023/09/03 00:15:25;;;;;;;2.55;2.35;;;;;;;20.47;55.69;94066.22;513879;28;951;-49
2023/09/03 00:15:40;;;;;;;2.50;2.30;;;;;;;20.47;55.91;94071.09;513841;28;1401;-50
2023/09/03 00:15:56;;;;;;;2.40;2.20;;;;;;;20.45;55.79;94077.31;513271;28;1448;-50
2023/09/03 00:16:11;;;;;;;2.83;2.55;;;;;;;20.44;55.89;94070.25;514026;28;839;-49
2023/09/03 00:16:27;;;;;;;3.10;2.60;;;;;;;20.44;55.71;94073.03;513966;28;831;-50
2023/09/03 00:16:43;;;;;;;2.90;2.28;;;;;;;20.44;55.76;94081.47;513986;28;899;-52
2023/09/03 00:16:58;;;;;;;2.80;2.20;;;;;;;20.42;55.70;94075.72;512268;28;1720;-52
2023/09/03 00:17:14;;;;;;;2.97;2.43;;;;;;;20.41;55.72;94082.66;512625;28;856;-49
2023/09/03 00:17:30;;;;;;;2.55;2.33;;;;;;;20.40;55.71;94073.50;513628;28;1096;-51
2023/09/03 00:17:46;;;;;;;2.90;2.20;;;;;;;20.39;55.72;94069.22;513899;28;1734;-50
2023/09/03 00:18:01;;;;;;;2.77;2.30;;;;;;;20.37;55.77;94077.50;512371;28;940;-50
2023/09/03 00:18:17;;;;;;;2.80;2.35;;;;;;;20.37;55.88;94068.34;512597;28;852;-50
2023/09/03 00:18:32;;;;;;;3.37;2.50;;;;;;;20.35;55.89;94074.56;513663;28;1436;-50
2023/09/03 00:18:47;;;;;;;2.85;2.45;;;;;;;20.35;55.96;94076.63;513891;28;1278;-52
2023/09/03 00:19:03;;;;;;;2.50;2.30;;;;;;;20.34;56.08;94073.09;513944;28;824;-51
2023/09/03 00:19:18;;;;;;;2.73;2.40;;;;;;;20.33;56.21;94071.63;513899;28;1310;-50
2023/09/03 00:19:34;;;;;;;3.22;2.63;;;;;;;20.33;56.25;94076.50;513925;28;951;-53
2023/09/03 00:19:49;;;;;;;2.97;2.60;;;;;;;20.30;56.24;94075.63;514012;28;766;-50
2023/09/03 00:20:05;;;;;;;3.03;2.70;;;;;;;20.30;56.34;94075.63;513871;28;1019;-50
2023/09/03 00:20:21;;;;;;;2.92;2.65;;;;;;;20.30;56.28;94074.88;513558;28;1475;-52
2023/09/03 00:20:36;;;;;;;3.00;2.60;;;;;;;20.31;56.27;94076.34;512800;28;861;-50
2023/09/03 00:21:01;;;;;;;2.85;2.35;;;;;;;20.30;56.47;94072.81;513884;28;901;-50
2023/09/03 00:21:16;;;;;;;2.67;2.45;;;;;;;20.30;56.48;94072.81;512459;28;1378;-49
2023/09/03 00:21:32;;;;;;;2.65;2.40;;;;;;;20.30;56.65;94077.69;512723;28;1102;-51
2023/09/03 00:21:47;;;;;;;2.53;2.33;;;;;;;20.30;56.67;94069.28;511951;28;983;-52
2023/09/03 00:22:02;;;;;;;2.57;2.37;;;;;;;20.30;56.64;94067.22;513761;28;1219;-50
2023/09/03 00:22:18;;;;;;;2.88;2.40;;;;;;;20.31;56.52;94070.75;513945;28;856;-52
2023/09/03 00:22:33;;;;;;;3.03;2.40;;;;;;;20.32;56.59;94075.00;513903;28;2072;-50
2023/09/03 00:22:52;;;;;;;3.50;2.63;;;;;;;20.31;56.72;94074.28;513931;28;895;-51
2023/09/03 00:23:08;;;;;;;3.28;2.65;;;;;;;20.32;56.71;94075.00;512714;28;1638;-50
2023/09/03 00:23:23;;;;;;;2.63;2.40;;;;;;;20.33;56.57;94073.69;513390;28;926;-49
2023/09/03 00:23:39;;;;;;;2.57;2.37;;;;;;;20.32;56.56;94075.00;513946;28;872;-50
2023/09/03 00:23:54;;;;;;;2.78;2.47;;;;;;;20.31;56.54;94065.84;513963;28;878;-50
2023/09/03 00:24:09;;;;;;;2.80;2.50;;;;;;;20.32;56.46;94067.34;512981;28;771;-50
2023/09/03 00:24:25;;;;;;;2.60;2.40;;;;;;;20.33;56.38;94071.63;513605;28;845;-52
2023/09/03 00:24:40;;;;;;;3.33;2.80;;;;;;;20.34;56.29;94069.53;513971;28;915;-49
2023/09/03 00:24:56;;;;;;;5.30;3.07;;;;;;;20.31;56.19;94063.06;513948;28;1143;-50
2023/09/03 00:25:11;;;;;;;5.77;2.70;;;;;;;20.33;56.25;94068.81;513994;28;772;-50
2023/09/03 00:25:26;;;;;;;4.25;2.40;;;;;;;20.32;56.24;94064.53;513125;28;1286;-52
2023/09/03 00:25:42;;;;;;;3.63;2.53;;;;;;;20.32;56.23;94070.16;511891;28;1732;-50
2023/09/03 00:25:58;;;;;;;3.10;2.50;;;;;;;20.33;56.31;94073.69;513220;28;1247;-50
2023/09/03 00:26:19;;;;;;;2.67;2.38;;;;;;;20.31;56.19;94068.66;513938;28;938;-51
2023/09/03 00:26:34;;;;;;;3.13;2.53;;;;;;;20.31;56.32;94074.28;512084;28;1429;-50
2023/09/03 00:26:50;;;;;;;3.15;2.50;;;;;;;20.30;56.24;94078.44;513869;28;809;-50
2023/09/03 00:27:05;;;;;;;3.37;2.50;;;;;;;20.30;56.35;94074.88;513890;28;826;-51
2023/09/03 00:27:20;;;;;;;3.10;2.67;;;;;;;20.29;56.37;94076.22;513747;28;903;-50
2023/09/03 00:27:36;;;;;;;3.40;2.90;;;;;;;20.27;56.31;94067.69;513861;28;815;-51
2023/09/03 00:27:51;;;;;;;3.50;3.00;;;;;;;20.28;56.36;94069.13;513549;28;1385;-50
2023/09/03 00:28:07;;;;;;;3.22;2.92;;;;;;;20.27;56.37;94071.19;513683;28;927;-50
2023/09/03 00:28:23;;;;;;;3.13;2.63;;;;;;;20.27;56.50;94067.69;513075;28;1846;-49
2023/09/03 00:28:38;;;;;;;3.08;2.60;;;;;;;20.25;56.32;94073.88;513457;28;868;-49
2023/09/03 00:28:53;;;;;;;2.73;2.50;;;;;;;20.25;56.32;94068.25;513512;28;977;-50
2023/09/03 00:29:09;;;;;;;2.83;2.47;;;;;;;20.25;56.32;94070.31;511960;28;856;-50
2023/09/03 00:29:24;;;;;;;2.80;2.40;;;;;;;20.23;56.34;94070.94;513495;28;880;-49
2023/09/03 00:29:40;;;;;;;2.90;2.60;;;;;;;20.22;56.38;94072.28;514020;28;817;-49
2023/09/03 00:29:56;;;;;;;3.20;2.90;;;;;;;20.23;56.41;94070.19;514065;28;961;-49
2023/09/03 00:30:12;;;;;;;3.03;2.72;;;;;;;20.20;56.41;94069.34;513946;28;926;-50
2023/09/03 00:30:27;;;;;;;3.80;2.60;;;;;;;20.20;56.57;94074.16;513323;28;1208;-49
2023/09/03 00:30:43;;;;;;;3.87;2.57;;;;;;;20.17;56.55;94067.69;512378;28;1504;-53
2023/09/03 00:31:07;;;;;;;2.70;2.50;;;;;;;20.16;56.62;94069.00;512050;28;771;-51
2023/09/03 00:31:25;;;;;;;3.05;2.40;;;;;;;20.15;56.74;94073.16;513322;28;1014;-49
2023/09/03 00:31:40;;;;;;;2.65;2.33;;;;;;;20.13;56.59;94067.41;514019;28;1227;-51
2023/09/03 00:31:56;;;;;;;2.83;2.53;;;;;;;20.14;56.84;94071.66;512934;28;1735;-51
2023/09/03 00:32:11;;;;;;;3.00;2.65;;;;;;;20.13;56.87;94072.28;513111;28;1024;-49
2023/09/03 00:32:27;;;;;;;3.13;2.60;;;;;;;20.12;56.95;94068.72;512699;28;868;-49
2023/09/03 00:32:42;;;;;;;3.13;2.40;;;;;;;20.11;57.00;94069.34;512009;28;911;-49
2023/09/03 00:32:57;;;;;;;2.65;2.28;;;;;;;20.11;56.91;94072.13;511864;28;847;-49
2023/09/03 00:33:13;;;;;;;2.60;2.30;;;;;;;20.11;56.87;94072.88;512225;28;1390;-50
2023/09/03 00:33:28;;;;;;;3.50;2.40;;;;;;;20.02;56.89;94054.03;513907;28;939;-49
2023/09/03 00:33:44;;;;;;;3.80;2.70;;;;;;;20.08;57.06;94062.09;513919;28;1108;-50
2023/09/03 00:33:59;;;;;;;2.93;2.63;;;;;;;20.08;57.07;94068.47;513815;28;856;-49
2023/09/03 00:34:25;;;;;;;2.70;2.50;;;;;;;20.08;57.19;94064.91;513911;28;856;-50
2023/09/03 00:34:41;;;;;;;3.50;2.72;;;;;;;20.07;57.14;94063.47;512487;28;1704;-49
2023/09/03 00:34:56;;;;;;;3.80;3.00;;;;;;;20.06;57.10;94067.56;513863;28;873;-49
2023/09/03 00:35:12;;;;;;;3.40;2.80;;;;;;;20.05;57.04;94061.25;513226;28;1315;-50
2023/09/03 00:35:27;;;;;;;3.23;2.53;;;;;;;20.06;57.19;94073.19;513551;28;892;-50
2023/09/03 00:35:45;;;;;;;3.40;2.93;;;;;;;20.05;57.13;94061.25;514049;28;1294;-49
2023/09/03 00:36:08;;;;;;;3.13;2.83;;;;;;;20.04;57.16;94059.78;513955;28;863;-52
2023/09/03 00:36:24;;;;;;;3.03;2.67;;;;;;;20.05;57.20;94064.06;513955;28;937;-50
2023/09/03 00:36:40;;;;;;;2.80;2.50;;;;;;;20.05;57.30;94066.13;513941;28;1123;-50
2023/09/03 00:36:55;;;;;;;2.70;2.50;;;;;;;20.04;57.35;94064.63;513920;28;860;-49
2023/09/03 00:37:12;;;;;;;3.20;2.80;;;;;;;20.04;57.38;94068.19;513370;28;1723;-50
2023/09/03 00:37:27;;;;;;;3.42;2.95;;;;;;;20.05;57.46;94066.88;513831;28;1568;-50
2023/09/03 00:37:42;;;;;;;3.07;2.77;;;;;;;19.75;57.48;94019.19;514014;28;833;-50
2023/09/03 00:37:58;;;;;;;2.53;2.33;;;;;;;20.04;57.57;94065.38;513809;28;943;-49
2023/09/03 00:38:13;;;;;;;2.40;2.20;;;;;;;20.04;57.49;94071.00;513783;28;1028;-50
2023/09/03 00:38:29;;;;;;;2.80;2.50;;;;;;;20.04;57.39;94059.03;513701;28;1417;-50
2023/09/03 00:38:47;;;;;;;2.97;2.70;;;;;;;20.01;57.44;94058.16;513982;28;778;-50
2023/09/03 00:39:03;;;;;;;3.15;2.85;;;;;;;20.04;57.51;94061.84;513915;28;1548;-49
2023/09/03 00:39:18;;;;;;;2.85;2.63;;;;;;;20.03;57.43;94063.19;513842;28;868;-51
2023/09/03 00:39:34;;;;;;;2.43;2.23;;;;;;;20.02;57.40;94067.31;513921;28;1056;-52
2023/09/03 00:39:49;;;;;;;2.97;2.38;;;;;;;20.01;57.43;94063.03;513965;28;777;-50
2023/09/03 00:40:08;;;;;;;3.43;2.80;;;;;;;19.99;57.38;94066.44;513845;28;872;-51
2023/09/03 00:40:23;;;;;;;4.15;2.80;;;;;;;19.98;57.35;94064.22;513912;28;896;-49
2023/09/03 00:40:38;;;;;;;4.22;2.70;;;;;;;19.97;57.46;94066.28;513253;28;1723;-49
2023/09/03 00:40:54;;;;;;;2.93;2.37;;;;;;;19.97;57.43;94063.50;512439;28;1571;-50
2023/09/03 00:41:09;;;;;;;2.97;2.67;;;;;;;19.95;57.44;94062.59;513018;28;786;-49
2023/09/03 00:41:25;;;;;;;3.10;2.80;;;;;;;19.94;57.42;94064.69;513874;28;967;-49
2023/09/03 00:41:40;;;;;;;3.80;2.93;;;;;;;19.94;57.46;94061.91;513974;28;891;-51
2023/09/03 00:41:56;;;;;;;3.53;2.78;;;;;;;19.93;57.36;94060.41;513850;28;927;-52
2023/09/03 00:42:11;;;;;;;2.50;2.30;;;;;;;19.91;57.66;94063.06;513872;28;859;-51
2023/09/03 00:42:27;;;;;;;2.50;2.30;;;;;;;19.91;57.46;94063.06;513888;28;1979;-51
2023/09/03 00:42:42;;;;;;;3.47;2.63;;;;;;;19.90;57.73;94067.22;513397;28;878;-50
2023/09/03 00:42:57;;;;;;;3.83;2.80;;;;;;;19.90;57.64;94066.47;511995;28;809;-50
2023/09/03 00:43:13;;;;;;;3.10;2.60;;;;;;;19.87;57.68;94062.78;511977;28;877;-50
2023/09/03 00:43:28;;;;;;;3.00;2.53;;;;;;;19.87;57.76;94056.44;513950;28;880;-50
2023/09/03 00:43:46;;;;;;;3.40;2.80;;;;;;;19.85;57.74;94062.66;513446;28;1727;-49
2023/09/03 00:44:03;;;;;;;3.08;2.72;;;;;;;19.87;57.70;94059.25;513738;28;1687;-50
2023/09/03 00:44:18;;;;;;;3.42;2.95;;;;;;;19.85;57.72;94068.25;513807;28;869;-49
2023/09/03 00:44:34;;;;;;;4.00;3.20;;;;;;;19.85;57.82;94064.72;514097;28;912;-49
2023/09/03 00:44:54;;;;;;;3.72;3.30;;;;;;;19.85;57.80;94067.53;513876;28;923;-48
2023/09/03 00:45:09;;;;;;;3.40;2.85;;;;;;;19.83;57.81;94064.56;513932;28;892;-49
2023/09/03 00:45:25;;;;;;;3.40;2.80;;;;;;;19.82;58.10;94057.50;513903;28;828;-49
2023/09/03 00:45:42;;;;;;;3.40;2.60;;;;;;;19.82;58.00;94060.28;514027;28;848;-50
2023/09/03 00:46:01;;;;;;;3.00;2.60;;;;;;;19.80;58.07;94060.16;512933;28;1731;-51
2023/09/03 00:46:17;;;;;;;3.03;2.80;;;;;;;19.80;58.13;94063.69;511940;28;1239;-50
2023/09/03 00:46:32;;;;;;;3.33;2.80;;;;;;;19.80;58.00;94060.16;511817;29;857;-48
2023/09/03 00:46:48;;;;;;;3.23;2.53;;;;;;;19.74;58.00;94060.47;511851;28;870;-50
2023/09/03 00:47:03;;;;;;;3.03;2.70;;;;;;;19.78;57.89;94065.63;511388;29;1463;-49
2023/09/03 00:47:19;;;;;;;2.90;2.60;;;;;;;19.78;57.97;94063.56;511625;29;880;-49
2023/09/03 00:47:35;;;;;;;2.58;2.38;;;;;;;19.78;57.92;94055.16;509831;29;883;-49
2023/09/03 00:47:52;;;;;;;2.88;2.53;;;;;;;19.77;57.87;94059.31;509830;29;841;-49
2023/09/03 00:48:09;;;;;;;2.97;2.60;;;;;;;19.79;58.01;94061.50;510429;29;1181;-49
2023/09/03 00:48:26;;;;;;;2.67;2.47;;;;;;;19.77;58.07;94055.75;512502;28;905;-49
2023/09/03 00:48:42;;;;;;;2.80;2.58;;;;;;;19.76;58.17;94060.63;513716;28;1226;-50
2023/09/03 00:48:58;;;;;;;2.85;2.50;;;;;;;19.75;58.16;94064.03;513892;28;766;-50
2023/09/03 00:49:20;;;;;;;2.97;2.67;;;;;;;19.73;58.06;94061.09;513667;28;817;-49
2023/09/03 00:49:40;;;;;;;2.75;2.55;;;;;;;19.73;58.08;94059.00;511948;28;853;-49
2023/09/03 00:49:55;;;;;;;2.90;2.50;;;;;;;19.72;58.05;94054.00;511888;28;901;-51
2023/09/03 00:50:10;;;;;;;3.00;2.63;;;;;;;19.71;58.15;94058.84;511842;29;832;-50
2023/09/03 00:50:27;;;;;;;4.05;3.20;;;;;;;19.70;58.08;94054.59;512949;28;1549;-49
2023/09/03 00:50:43;;;;;;;4.32;3.22;;;;;;;19.70;58.06;94062.25;513267;28;932;-49
2023/09/03 00:51:05;;;;;;;3.28;2.60;;;;;;;19.69;58.21;94055.91;513278;28;899;-49
2023/09/03 00:51:21;;;;;;;3.00;2.70;;;;;;;19.65;58.31;94053.56;512855;28;943;-51
2023/09/03 00:51:36;;;;;;;2.80;2.60;;;;;;;19.67;58.35;94052.97;512516;28;876;-50
2023/09/03 00:51:53;;;;;;;2.80;2.55;;;;;;;19.67;58.27;94058.56;512064;28;1182;-50
2023/09/03 00:52:09;;;;;;;4.28;2.63;;;;;;;19.66;58.35;94060.63;513861;28;924;-51
2023/09/03 00:52:25;;;;;;;4.43;2.75;;;;;;;19.66;58.23;94057.13;513867;28;1086;-48
2023/09/03 00:52:40;;;;;;;2.88;2.50;;;;;;;19.65;58.25;94056.38;513887;28;809;-50
2023/09/03 00:52:56;;;;;;;3.07;2.47;;;;;;;19.65;58.18;94061.97;513865;28;1003;-49
2023/09/03 00:53:13;;;;;;;3.45;2.67;;;;;;;19.63;58.41;94059.03;512999;28;1712;-49
2023/09/03 00:53:30;;;;;;;2.83;2.45;;;;;;;19.62;58.47;94056.84;513041;28;1499;-50
2023/09/03 00:53:48;;;;;;;2.80;2.60;;;;;;;19.61;58.38;94053.28;512377;28;831;-48
2023/09/03 00:54:04;;;;;;;2.85;2.60;;;;;;;19.60;58.45;94059.47;513279;28;1334;-48
2023/09/03 00:54:23;;;;;;;2.60;2.40;;;;;;;19.58;58.55;94057.28;511433;29;924;-49
2023/09/03 00:54:38;;;;;;;2.83;2.33;;;;;;;19.58;58.42;94060.06;511780;29;1805;-47
2023/09/03 00:54:54;;;;;;;2.60;2.40;;;;;;;19.54;58.50;94053.44;511656;29;1246;-48
2023/09/03 00:55:09;;;;;;;2.63;2.42;;;;;;;19.57;58.47;94061.41;511830;29;834;-48
2023/09/03 00:55:25;;;;;;;3.27;2.70;;;;;;;19.57;58.57;94055.06;511657;29;881;-49
2023/09/03 00:55:40;;;;;;;3.63;2.73;;;;;;;19.56;58.57;94057.13;510969;29;854;-48
2023/09/03 00:55:56;;;;;;;2.92;2.45;;;;;;;19.56;58.57;94057.13;511058;28;1744;-48
2023/09/03 00:56:11;;;;;;;3.07;2.77;;;;;;;19.55;58.61;94052.88;512318;28;1354;-48
2023/09/03 00:56:27;;;;;;;3.35;2.97;;;;;;;19.55;58.41;94052.13;512172;28;1322;-47
2023/09/03 00:56:42;;;;;;;2.93;2.60;;;;;;;19.54;58.47;94051.41;512200;28;790;-48
2023/09/03 00:56:58;;;;;;;2.88;2.42;;;;;;;19.54;58.51;94056.25;510779;28;1030;-47
2023/09/03 00:57:13;;;;;;;3.43;2.80;;;;;;;19.53;58.44;94054.78;509633;29;1786;-48
2023/09/03 00:57:29;;;;;;;3.27;2.80;;;;;;;19.52;58.55;94054.06;507696;29;1277;-50
2023/09/03 00:57:44;;;;;;;3.00;2.70;;;;;;;19.52;58.56;94048.44;507648;29;1063;-47
2023/09/03 00:58:00;;;;;;;3.05;2.75;;;;;;;19.51;58.52;94055.38;507498;29;925;-48
2023/09/03 00:58:15;;;;;;;2.70;2.47;;;;;;;19.50;58.61;94048.31;508978;29;920;-49
2023/09/03 00:58:31;;;;;;;2.93;2.50;;;;;;;19.50;58.73;94047.56;507804;29;1750;-49
2023/09/03 00:58:47;;;;;;;2.88;2.58;;;;;;;19.49;58.65;94041.22;510156;29;1619;-47
2023/09/03 00:59:02;;;;;;;3.00;2.55;;;;;;;19.47;58.64;94045.94;512090;28;1195;-48
2023/09/03 00:59:22;;;;;;;3.03;2.60;;;;;;;19.48;58.66;94048.19;511702;28;844;-48
2023/09/03 00:59:37;;;;;;;3.90;2.97;;;;;;;19.48;58.82;94047.44;511749;29;975;-47
2023/09/03 00:59:53;;;;;;;3.92;3.08;;;;;;;19.47;58.85;94045.94;509415;29;1379;-48
2023/09/03 01:00:10;;;;;;;3.17;2.87;;;;;;;19.48;58.77;94044.63;507704;29;1411;-49
2023/09/03 01:00:26;;;;;;;2.85;2.65;;;;;;;19.48;58.95;94047.44;507811;29;1044;-48
2023/09/03 01:00:41;;;;;;;3.95;3.03;;;;;;;19.47;59.09;94043.88;508913;29;1192;-48
2023/09/03 01:00:57;;;;;;;4.37;3.07;;;;;;;19.46;59.09;94045.22;509883;29;841;-48
2023/09/03 01:01:13;;;;;;;3.10;2.75;;;;;;;19.46;59.12;94042.44;509772;29;849;-48
2023/09/03 01:01:29;;;;;;;2.55;2.30;;;;;;;19.41;59.17;94037.13;511598;29;852;-47
2023/09/03 01:01:45;;;;;;;2.70;2.38;;;;;;;19.45;59.24;94040.94;512427;28;827;-48
2023/09/03 01:02:01;;;;;;;2.88;2.50;;;;;;;19.45;59.14;94049.34;512472;28;1139;-50
2023/09/03 01:02:19;;;;;;;3.55;2.47;;;;;;;19.42;59.05;94042.16;513345;28;1291;-48
2023/09/03 01:02:35;;;;;;;4.00;2.65;;;;;;;19.42;59.37;94038.59;512029;28;1962;-48
2023/09/03 01:02:53;;;;;;;3.27;2.53;;;;;;;19.41;59.46;94043.47;511162;28;845;-48
2023/09/03 01:03:08;;;;;;;3.38;2.70;;;;;;;19.39;59.39;94043.31;511660;29;947;-48
2023/09/03 01:03:26;;;;;;;3.03;2.70;;;;;;;19.40;59.44;94044.06;511692;29;834;-49
2023/09/03 01:03:42;;;;;;;3.35;2.80;;;;;;;19.41;59.31;94046.25;511707;28;1593;-50
2023/09/03 01:03:58;;;;;;;3.50;3.00;;;;;;;19.41;59.30;94042.72;511117;29;1609;-50
2023/09/03 01:04:13;;;;;;;3.10;2.80;;;;;;;19.40;59.39;94046.88;511730;29;876;-48
2023/09/03 01:04:29;;;;;;;3.10;2.55;;;;;;;19.40;59.50;94042.00;511759;29;849;-49
2023/09/03 01:04:44;;;;;;;3.50;2.70;;;;;;;19.40;59.48;94049.66;512319;28;1282;-49
2023/09/03 01:05:00;;;;;;;3.00;2.65;;;;;;;19.40;59.41;94049.66;513398;28;873;-50
2023/09/03 01:05:15;;;;;;;3.63;2.63;;;;;;;19.38;59.51;94041.13;511649;29;1143;-49
2023/09/03 01:05:31;;;;;;;3.83;2.63;;;;;;;19.36;59.48;94044.50;511806;29;827;-47
2023/09/03 01:05:46;;;;;;;2.83;2.60;;;;;;;19.37;59.40;94048.78;511522;29;1362;-48
2023/09/03 01:06:02;;;;;;;2.70;2.50;;;;;;;19.37;59.47;94042.44;511682;28;854;-47
2023/09/03 01:06:17;;;;;;;2.55;2.35;;;;;;;19.37;59.40;94042.44;512119;28;1105;-47
2023/09/03 01:06:33;;;;;;;2.63;2.42;;;;;;;19.32;59.45;94035.03;513332;28;1127;-48
2023/09/03 01:06:48;;;;;;;2.73;2.53;;;;;;;19.36;59.34;94049.38;512915;28;1657;-48
2023/09/03 01:07:04;;;;;;;3.53;2.67;;;;;;;19.35;59.36;94039.50;511960;28;1393;-47
2023/09/03 01:07:19;;;;;;;3.33;2.63;;;;;;;19.34;59.25;94040.81;513741;28;1084;-48
2023/09/03 01:07:35;;;;;;;2.93;2.47;;;;;;;19.31;59.04;94039.94;513866;28;883;-48
2023/09/03 01:07:50;;;;;;;3.45;2.50;;;;;;;19.31;59.15;94037.13;512489;28;1153;-49
2023/09/03 01:08:06;;;;;;;2.80;2.53;;;;;;;19.14;59.24;94020.50;512325;28;1344;-48
2023/09/03 01:08:21;;;;;;;4.15;3.17;;;;;;;19.30;59.40;94044.03;513062;28;927;-48
2023/09/03 01:08:37;;;;;;;4.90;3.40;;;;;;;19.30;59.48;94035.66;513712;28;1181;-47
2023/09/03 01:08:52;;;;;;;4.47;2.83;;;;;;;19.31;59.33;94042.00;512278;28;944;-47
2023/09/03 01:09:08;;;;;;;3.97;2.50;;;;;;;19.30;59.29;94038.44;513632;28;928;-49
2023/09/03 01:09:23;;;;;;;4.30;2.60;;;;;;;19.30;59.45;94037.69;512266;28;1275;-48
2023/09/03 01:09:40;;;;;;;4.25;2.80;;;;;;;19.30;59.22;94038.44;512635;28;1372;-49
2023/09/03 01:09:55;;;;;;;2.88;2.58;;;;;;;19.31;59.37;94044.78;512762;28;819;-48
2023/09/03 01:10:11;;;;;;;3.40;2.47;;;;;;;19.26;59.35;94026.22;512485;28;1282;-47
2023/09/03 01:10:57;;;;;;;3.35;2.70;;;;;;;19.31;59.23;94036.38;512270;28;853;-48
2023/09/03 01:11:31;;;;;;;2.55;2.35;;;;;;;19.30;59.28;94041.25;510104;29;929;-49
2023/09/03 01:12:00;;;;;;;3.63;2.85;;;;;;;19.18;59.63;94022.84;509711;28;1659;-49
2023/09/03 01:12:25;;;;;;;2.78;2.47;;;;;;;19.31;59.49;94039.19;508428;29;1509;-47
2023/09/03 01:12:44;;;;;;;3.25;2.50;;;;;;;19.31;59.55;94034.31;511767;29;1219;-48
2023/09/03 01:13:17;;;;;;;3.28;2.65;;;;;;;19.31;59.54;94037.13;511871;28;799;-47
2023/09/03 01:13:39;;;;;;;3.28;2.80;;;;;;;19.31;59.65;94037.13;511993;28;1445;-48
2023/09/03 01:13:56;;;;;;;3.28;2.65;;;;;;;19.32;59.56;94033.00;511714;28;845;-47
2023/09/03 01:14:20;;;;;;;2.65;2.40;;;;;;;19.30;59.68;94032.84;511214;28;1208;-48
2023/09/03 01:15:02;;;;;;;3.30;2.70;;;;;;;19.29;59.58;94036.25;513719;28;1047;-48
2023/09/03 01:15:30;;;;;;;2.90;2.60;;;;;;;19.28;59.52;94031.97;513574;28;975;-48
2023/09/03 01:15:49;;;;;;;3.47;2.78;;;;;;;19.20;59.65;94017.41;513408;28;902;-48
2023/09/03 01:16:10;;;;;;;3.00;2.65;;;;;;;19.26;59.52;94034.63;514859;28;918;-49
2023/09/03 01:16:33;;;;;;;2.88;2.35;;;;;;;19.25;59.55;94028.28;513670;28;1052;-46
2023/09/03 01:17:13;;;;;;;3.17;2.58;;;;;;;19.26;59.38;94037.41;513794;28;868;-49
2023/09/03 01:17:37;;;;;;;2.60;2.33;;;;;;;19.25;59.29;94035.97;511717;29;975;-48
2023/09/03 01:18:07;;;;;;;2.72;2.53;;;;;;;19.22;59.29;94032.28;511650;29;936;-48
2023/09/03 01:18:24;;;;;;;3.58;2.60;;;;;;;19.22;59.40;94037.88;513186;28;1684;-48
2023/09/03 01:18:41;;;;;;;2.88;2.50;;;;;;;19.22;59.25;94043.47;513565;28;1112;-48
2023/09/03 01:18:57;;;;;;;2.58;2.38;;;;;;;19.22;59.37;94039.94;511736;28;963;-49
2023/09/03 01:19:48;;;;;;;3.42;2.53;;;;;;;19.20;59.57;94037.00;509640;29;861;-49
2023/09/03 01:20:05;;;;;;;2.50;2.30;;;;;;;19.19;59.65;94035.53;508785;29;1188;-49
2023/09/03 01:20:30;;;;;;;2.85;2.55;;;;;;;19.18;59.71;94039.66;511609;28;941;-48
2023/09/03 01:21:20;;;;;;;3.20;2.88;;;;;;;19.17;59.77;94035.38;510086;29;833;-49
2023/09/03 01:21:54;;;;;;;3.03;2.38;;;;;;;19.14;59.75;94037.31;511694;29;1282;-48
2023/09/03 01:22:22;;;;;;;3.17;2.75;;;;;;;19.12;59.69;94031.56;507748;29;838;-48
2023/09/03 01:22:46;;;;;;;2.47;2.08;;;;;;;19.14;59.73;94037.31;508309;29;865;-48
2023/09/03 01:23:19;;;;;;;2.97;2.33;;;;;;;19.13;59.79;94038.63;510104;29;1266;-49
2023/09/03 01:23:37;;;;;;;3.63;2.90;;;;;;;19.13;59.69;94033.03;511123;28;948;-49
2023/09/03 01:24:02;;;;;;;3.25;2.72;;;;;;;19.12;59.61;94034.38;511578;28;885;-47